createdAt,value
2023-03-17T00:00:59.300Z,70.54
2023-03-17T00:07:14.997Z,69.91
2023-03-17T00:09:47.656Z,70.12
2023-03-17T00:12:27.173Z,70.32
2023-03-17T00:15:16.968Z,70.39
2023-03-17T00:17:57.934Z,71.04
2023-03-17T00:20:34.294Z,70.98
2023-03-17T00:23:04.164Z,72.37
2023-03-17T00:25:42.905Z,71.47
2023-03-17T00:28:19.094Z,71.76
2023-03-17T00:30:56.033Z,71.73
2023-03-17T00:33:28.541Z,71.79
2023-03-17T00:35:59.624Z,72.83
2023-03-17T00:38:31.091Z,72.26
2023-03-17T00:41:03.162Z,72.93
2023-03-17T00:43:33.774Z,72.24
2023-03-17T00:46:10.631Z,72.65
2023-03-17T00:48:41.012Z,72.39
2023-03-17T00:51:10.190Z,72.43
2023-03-17T00:53:40.153Z,72.99
2023-03-17T00:56:16.455Z,72.50
2023-03-17T00:58:48.460Z,72.45
2023-03-17T01:01:20.782Z,71.97
2023-03-17T01:03:56.946Z,71.86
2023-03-17T01:06:26.890Z,72.10
2023-03-17T01:09:06.441Z,71.71
2023-03-17T01:11:41.640Z,71.89
2023-03-17T01:14:11.658Z,71.92
2023-03-17T01:16:41.381Z,71.74
2023-03-17T01:19:15.096Z,71.44
2023-03-17T01:21:46.414Z,71.39
2023-03-17T01:24:17.453Z,71.89
2023-03-17T01:26:50.372Z,71.63
2023-03-17T01:29:19.759Z,71.88
2023-03-17T01:31:50.130Z,72.02
2023-03-17T01:34:22.075Z,72.12
2023-03-17T01:36:52.911Z,72.22
2023-03-17T01:39:39.368Z,72.19
2023-03-17T01:42:09.890Z,72.50
2023-03-17T01:45:03.427Z,72.56
2023-03-17T01:47:33.272Z,72.67
2023-03-17T01:50:11.514Z,72.15
2023-03-17T01:52:41.048Z,72.55
2023-03-17T01:55:14.693Z,72.38
2023-03-17T01:57:50.121Z,72.37
2023-03-17T02:00:24.496Z,73.12
2023-03-17T02:02:57.819Z,73.52
2023-03-17T02:05:30.692Z,73.64
2023-03-17T02:08:00.201Z,73.91
2023-03-17T02:10:31.980Z,74.13
2023-03-17T02:13:05.083Z,74.11
2023-03-17T02:15:39.877Z,74.18
2023-03-17T02:18:11.874Z,74.07
2023-03-17T02:21:18.203Z,74.08
2023-03-17T02:23:49.795Z,74.27
2023-03-17T02:26:34.109Z,73.88
2023-03-17T02:29:23.393Z,74.65
2023-03-17T02:32:11.255Z,74.11
2023-03-17T02:34:41.982Z,73.83
2023-03-17T02:37:11.723Z,74.16
2023-03-17T02:39:43.054Z,73.90
2023-03-17T02:42:13.926Z,74.22
2023-03-17T02:44:45.099Z,74.18
2023-03-17T02:47:15.498Z,74.09
2023-03-17T02:49:46.053Z,73.59
2023-03-17T02:52:16.208Z,73.70
2023-03-17T02:54:47.683Z,73.75
2023-03-17T02:57:18.326Z,73.88
2023-03-17T02:59:48.251Z,73.55
2023-03-17T03:02:20.293Z,73.47
2023-03-17T03:04:50.639Z,73.72
2023-03-17T03:07:20.330Z,73.59
2023-03-17T03:09:49.662Z,73.88
2023-03-17T03:12:19.025Z,73.90
2023-03-17T03:14:54.034Z,73.96
2023-03-17T03:17:33.782Z,74.22
2023-03-17T03:20:03.788Z,74.45
2023-03-17T03:22:33.077Z,74.37
2023-03-17T03:25:01.709Z,74.66
2023-03-17T03:27:32.094Z,75.18
2023-03-17T03:30:04.710Z,75.11
2023-03-17T03:32:34.045Z,75.07
2023-03-17T03:35:03.780Z,74.57
2023-03-17T03:37:33.160Z,74.89
2023-03-17T03:40:03.676Z,74.69
2023-03-17T03:42:34.102Z,75.07
2023-03-17T03:45:05.165Z,74.86
2023-03-17T03:48:21.673Z,74.88
2023-03-17T03:50:34.492Z,74.89
2023-03-17T03:53:04.205Z,74.78
2023-03-17T03:55:34.324Z,75.07
2023-03-17T03:58:07.352Z,75.02
2023-03-17T04:00:36.749Z,74.86
2023-03-17T04:03:08.083Z,75.00
2023-03-17T04:05:37.680Z,75.12
2023-03-17T04:08:10.659Z,75.35
2023-03-17T04:10:43.449Z,75.81
2023-03-17T04:13:29.802Z,76.04
2023-03-17T04:16:06.551Z,75.94
2023-03-17T04:18:40.673Z,76.06
2023-03-17T04:21:18.516Z,76.26
2023-03-17T04:23:51.014Z,76.32
2023-03-17T04:26:22.555Z,75.78
2023-03-17T04:28:59.434Z,75.59
2023-03-17T04:31:34.113Z,75.44
2023-03-17T04:34:04.225Z,75.68
2023-03-17T04:36:36.728Z,75.47
2023-03-17T04:39:06.855Z,75.66
2023-03-17T04:41:40.487Z,74.63
2023-03-17T04:44:10.750Z,74.70
2023-03-17T04:46:41.740Z,74.86
2023-03-17T04:49:11.636Z,74.97
2023-03-17T04:51:41.544Z,75.00
2023-03-17T04:54:11.637Z,75.71
2023-03-17T04:56:40.732Z,75.22
2023-03-17T04:59:10.968Z,75.21
2023-03-17T05:13:14.226Z,77.17
2023-03-17T05:15:53.714Z,76.99
2023-03-17T05:18:25.137Z,76.62
2023-03-17T05:20:55.207Z,76.20
2023-03-17T05:23:29.194Z,75.86
2023-03-17T05:25:58.887Z,75.57
2023-03-17T05:28:28.675Z,75.78
2023-03-17T05:31:05.226Z,75.70
2023-03-17T05:33:36.927Z,74.89
2023-03-17T05:36:08.166Z,74.40
2023-03-17T05:38:40.106Z,74.40
2023-03-17T05:41:11.810Z,73.70
2023-03-17T05:43:43.023Z,73.64
2023-03-17T05:46:13.237Z,72.38
2023-03-17T05:48:48.018Z,71.59
2023-03-17T05:51:20.096Z,71.87
2023-03-17T05:53:58.688Z,72.21
2023-03-17T05:56:33.257Z,71.85
2023-03-17T05:59:09.731Z,71.86
2023-03-17T06:01:39.469Z,71.72
2023-03-17T06:04:15.237Z,71.78
2023-03-17T06:06:54.856Z,72.97
2023-03-17T06:09:27.892Z,72.58
2023-03-17T06:11:59.229Z,72.13
2023-03-17T06:14:29.768Z,71.74
2023-03-17T06:16:59.034Z,70.29
2023-03-17T06:19:33.412Z,69.67
2023-03-17T06:22:11.094Z,70.44
2023-03-17T06:24:41.055Z,71.44
2023-03-17T06:27:16.228Z,70.21
2023-03-17T06:29:45.762Z,69.76
2023-03-17T06:32:20.751Z,70.32
2023-03-17T06:34:51.311Z,70.20
2023-03-17T06:37:27.280Z,70.02
2023-03-17T06:39:57.956Z,70.25
2023-03-17T06:42:27.465Z,69.36
2023-03-17T06:44:57.597Z,69.14
2023-03-17T06:47:28.013Z,68.01
2023-03-17T06:49:58.741Z,68.13
2023-03-17T06:52:28.602Z,67.64
2023-03-17T06:54:58.977Z,67.22
2023-03-17T06:57:41.963Z,68.12
2023-03-17T07:00:21.194Z,66.55
2023-03-17T07:02:56.966Z,64.92
2023-03-17T07:05:34.231Z,64.84
2023-03-17T07:08:28.871Z,64.88
2023-03-17T07:11:35.129Z,63.37
2023-03-17T07:14:05.866Z,63.33
2023-03-17T07:16:41.938Z,63.16
2023-03-17T07:19:13.768Z,63.28
2023-03-17T07:21:44.885Z,63.07
2023-03-17T07:24:19.475Z,62.46
2023-03-17T07:26:56.639Z,62.29
2023-03-17T07:29:38.159Z,62.03
2023-03-17T07:32:17.407Z,61.92
2023-03-17T07:34:52.217Z,62.01
2023-03-17T07:37:28.192Z,61.76
2023-03-17T07:40:15.826Z,61.49
2023-03-17T07:42:46.061Z,61.00
2023-03-17T07:45:21.949Z,60.66
2023-03-17T07:47:53.348Z,60.54
2023-03-17T07:50:24.472Z,60.58
2023-03-17T07:52:54.676Z,60.61
2023-03-17T07:55:24.751Z,60.06
2023-03-17T07:57:59.742Z,59.59
2023-03-17T08:00:30.607Z,57.00
2023-03-17T08:03:10.386Z,57.56
2023-03-17T08:05:41.332Z,58.15
2023-03-17T08:11:20.505Z,57.85
2023-03-17T08:13:52.682Z,56.80
2023-03-17T08:16:22.759Z,56.16
2023-03-17T08:18:54.206Z,56.47
2023-03-17T08:21:33.951Z,57.74
2023-03-17T08:24:09.363Z,57.37
2023-03-17T08:26:46.570Z,57.60
2023-03-17T08:29:18.137Z,57.45
2023-03-17T08:31:48.383Z,57.32
2023-03-17T08:34:21.214Z,57.22
2023-03-17T08:37:06.155Z,56.97
2023-03-17T08:39:40.609Z,56.70
2023-03-17T08:42:11.467Z,56.28
2023-03-17T08:44:51.811Z,55.98
2023-03-17T08:47:26.837Z,55.97
2023-03-17T08:50:16.177Z,55.44
2023-03-17T08:52:58.793Z,55.24
2023-03-17T08:55:42.214Z,54.79
2023-03-17T08:58:21.730Z,53.15
2023-03-17T09:00:53.348Z,52.72
2023-03-17T09:03:29.487Z,53.76
2023-03-17T09:06:03.516Z,53.59
2023-03-17T09:08:42.447Z,54.24
2023-03-17T09:11:22.699Z,54.15
2023-03-17T09:13:57.941Z,54.40
2023-03-17T09:16:33.539Z,54.28
2023-03-17T09:19:06.483Z,54.31
2023-03-17T09:21:35.865Z,54.44
2023-03-17T09:24:14.298Z,54.27
2023-03-17T09:26:47.536Z,53.79
2023-03-17T09:29:37.981Z,53.70
2023-03-17T09:32:16.826Z,53.21
2023-03-17T09:34:53.274Z,52.56
2023-03-17T09:37:25.037Z,51.97
2023-03-17T09:39:58.593Z,51.65
2023-03-17T09:42:42.389Z,51.07
2023-03-17T09:45:21.816Z,51.24
2023-03-17T09:48:06.327Z,50.42
2023-03-17T09:50:44.863Z,48.82
2023-03-17T09:53:33.623Z,49.52
2023-03-17T09:56:12.160Z,50.24
2023-03-17T09:58:53.516Z,50.47
2023-03-17T10:01:25.195Z,49.00
2023-03-17T10:03:56.437Z,48.35
2023-03-17T10:06:37.003Z,45.30
2023-03-17T10:09:26.891Z,48.11
2023-03-17T10:12:05.596Z,48.71
2023-03-17T10:14:54.465Z,48.62
2023-03-17T10:17:28.398Z,48.64
2023-03-17T10:20:08.325Z,48.64
2023-03-17T10:22:48.482Z,48.24
2023-03-17T10:25:25.132Z,45.49
2023-03-17T10:27:59.925Z,45.30
2023-03-17T10:30:34.080Z,45.12
2023-03-17T10:33:07.430Z,45.50
2023-03-17T10:35:44.729Z,43.93
2023-03-17T10:38:18.519Z,45.23
2023-03-17T10:40:57.025Z,43.89
2023-03-17T10:43:35.710Z,42.91
2023-03-17T10:46:21.127Z,42.74
2023-03-17T10:48:59.850Z,43.92
2023-03-17T10:51:36.687Z,42.59
2023-03-17T10:54:23.179Z,42.77
2023-03-17T10:57:01.449Z,44.46
2023-03-17T10:59:37.672Z,44.17
2023-03-17T11:06:04.006Z,44.96
2023-03-17T11:08:41.035Z,45.24
2023-03-17T11:11:28.210Z,45.11
2023-03-17T11:14:05.498Z,45.26
2023-03-17T11:16:44.792Z,45.02
2023-03-17T11:19:18.309Z,45.04
2023-03-17T11:21:56.485Z,44.57
2023-03-17T11:24:35.278Z,44.94
2023-03-17T11:27:20.408Z,44.81
2023-03-17T11:30:03.168Z,44.74
2023-03-17T11:32:43.321Z,44.27
2023-03-17T11:35:44.606Z,42.09
2023-03-17T11:38:22.154Z,41.99
2023-03-17T11:41:20.771Z,43.17
2023-03-17T11:44:05.827Z,43.19
2023-03-17T11:46:45.296Z,43.45
2023-03-17T11:49:21.781Z,43.62
2023-03-17T11:52:02.622Z,43.66
2023-03-17T11:54:45.469Z,44.17
2023-03-17T11:57:29.555Z,44.50
2023-03-17T12:00:09.604Z,44.49
2023-03-17T12:02:54.150Z,44.74
2023-03-17T12:05:29.487Z,44.77
2023-03-17T12:08:13.690Z,44.42
2023-03-17T12:10:49.523Z,44.29
2023-03-17T12:13:28.981Z,44.69
2023-03-17T12:16:15.310Z,44.65
2023-03-17T12:18:55.217Z,44.45
2023-03-17T12:21:32.454Z,44.26
2023-03-17T12:24:06.893Z,43.92
2023-03-17T12:26:50.116Z,42.99
2023-03-17T12:29:28.260Z,43.93
2023-03-17T12:32:06.678Z,44.01
2023-03-17T12:34:52.012Z,44.72
2023-03-17T12:37:31.166Z,44.38
2023-03-17T12:40:09.588Z,44.36
2023-03-17T12:42:53.387Z,44.55
2023-03-17T12:45:55.331Z,44.24
2023-03-17T12:48:44.824Z,44.55
2023-03-17T12:51:49.465Z,44.47
2023-03-17T12:54:25.654Z,44.31
2023-03-17T12:57:11.266Z,43.67
2023-03-17T12:59:45.507Z,42.93
2023-03-17T13:02:31.402Z,42.89
2023-03-17T13:05:29.741Z,43.77
2023-03-17T13:08:15.365Z,43.47
2023-03-17T13:10:48.251Z,43.53
2023-03-17T13:13:48.271Z,44.11
2023-03-17T13:16:32.742Z,44.02
2023-03-17T13:19:20.720Z,44.30
2023-03-17T13:22:14.807Z,43.73
2023-03-17T13:24:47.474Z,43.85
2023-03-17T13:27:46.129Z,43.81
2023-03-17T13:30:44.105Z,42.62
2023-03-17T13:33:19.370Z,41.62
2023-03-17T13:36:16.042Z,42.28
2023-03-17T13:39:20.069Z,42.19
2023-03-17T13:42:18.933Z,42.25
2023-03-17T13:45:15.813Z,42.85
2023-03-17T13:47:46.671Z,43.32
2023-03-17T13:50:23.188Z,43.21
2023-03-17T13:53:02.346Z,42.98
2023-03-17T13:55:39.717Z,41.76
2023-03-17T13:58:35.597Z,42.64
2023-03-17T14:01:13.857Z,42.06
2023-03-17T14:03:53.376Z,38.88
2023-03-17T14:06:31.330Z,38.37
2023-03-17T14:09:13.648Z,37.55
2023-03-17T14:12:05.878Z,37.93
2023-03-17T14:14:46.644Z,37.65
2023-03-17T14:17:20.429Z,36.73
2023-03-17T14:20:04.689Z,36.53
2023-03-17T14:22:39.805Z,36.21
2023-03-17T14:25:18.566Z,34.21
2023-03-17T14:28:03.132Z,33.48
2023-03-17T14:30:40.364Z,34.14
2023-03-17T14:33:21.667Z,34.83
2023-03-17T14:35:53.740Z,35.38
2023-03-17T14:38:26.205Z,35.33
2023-03-17T14:41:04.311Z,32.68
2023-03-17T14:43:36.986Z,32.92
2023-03-17T14:46:13.424Z,33.12
2023-03-17T14:48:50.540Z,33.21
2023-03-17T14:51:28.578Z,33.96
2023-03-17T14:54:02.262Z,34.49
2023-03-17T14:56:35.644Z,33.16
2023-03-17T14:59:18.049Z,34.23
2023-03-17T15:01:48.886Z,34.87
2023-03-17T15:04:24.160Z,32.20
2023-03-17T15:06:55.297Z,32.76
2023-03-17T15:09:44.224Z,33.64
2023-03-17T15:12:22.242Z,32.76
2023-03-17T15:14:57.839Z,33.59
2023-03-17T15:17:31.456Z,34.65
2023-03-17T15:20:13.932Z,34.46
2023-03-17T15:22:48.248Z,33.33
2023-03-17T15:25:24.434Z,33.07
2023-03-17T15:28:00.732Z,33.92
2023-03-17T15:30:46.200Z,34.44
2023-03-17T15:33:23.091Z,34.98
2023-03-17T15:36:32.800Z,36.32
2023-03-17T15:39:09.211Z,37.80
2023-03-17T15:41:43.011Z,38.88
2023-03-17T15:44:13.084Z,40.11
2023-03-17T16:05:23.863Z,43.50
2023-03-17T16:07:55.969Z,43.75
2023-03-17T16:10:30.887Z,44.40
2023-03-17T16:13:04.140Z,45.51
2023-03-17T16:15:41.843Z,45.82
2023-03-17T16:18:18.252Z,45.34
2023-03-17T16:20:50.415Z,45.85
2023-03-17T16:23:35.332Z,46.80
2023-03-17T16:26:15.401Z,48.10
2023-03-17T16:28:48.491Z,49.15
2023-03-17T16:31:21.213Z,49.48
2023-03-17T16:33:52.972Z,50.32
2023-03-17T16:36:23.903Z,49.99
2023-03-17T16:38:55.638Z,49.34
2023-03-17T16:41:28.011Z,49.05
2023-03-17T16:44:05.187Z,50.19
2023-03-17T16:46:37.637Z,51.60
2023-03-17T16:49:07.930Z,52.25
2023-03-17T16:51:37.478Z,51.44
2023-03-17T16:54:07.819Z,52.07
2023-03-17T16:56:37.779Z,51.79
2023-03-17T16:59:10.801Z,52.32
2023-03-17T17:01:41.394Z,50.78
2023-03-17T17:04:13.323Z,51.08
2023-03-17T17:06:44.923Z,50.88
2023-03-17T17:09:15.341Z,51.45
2023-03-17T17:11:46.478Z,51.58
2023-03-17T17:14:31.998Z,52.12
2023-03-17T17:17:15.615Z,51.93
2023-03-17T17:20:03.621Z,52.09
2023-03-17T17:22:32.819Z,52.76
2023-03-17T17:25:01.166Z,53.41
2023-03-17T17:27:32.501Z,52.69
2023-03-17T17:30:03.193Z,52.73
2023-03-17T17:32:39.482Z,53.22
2023-03-17T17:35:13.420Z,52.64
2023-03-17T17:37:44.731Z,53.80
2023-03-17T17:40:27.587Z,53.38
2023-03-17T17:43:01.426Z,53.91
2023-03-17T17:45:38.095Z,53.51
2023-03-17T17:48:12.736Z,54.54
2023-03-17T17:51:16.496Z,53.99
2023-03-17T17:53:49.053Z,53.00
2023-03-17T17:56:34.995Z,52.88
2023-03-17T17:59:04.118Z,53.84
2023-03-17T18:01:36.524Z,52.93
2023-03-17T18:04:15.942Z,52.90
2023-03-17T18:06:46.197Z,52.57
2023-03-17T18:09:17.894Z,53.15
2023-03-17T18:11:47.370Z,53.76
2023-03-17T18:14:22.014Z,53.51
2023-03-17T18:16:52.305Z,54.21
2023-03-17T18:19:24.098Z,53.95
2023-03-17T18:21:56.781Z,54.05
2023-03-17T18:24:31.941Z,54.46
2023-03-17T18:27:03.368Z,55.51
2023-03-17T18:29:32.889Z,55.75
2023-03-17T18:32:02.597Z,54.86
2023-03-17T18:34:44.786Z,54.50
2023-03-17T18:37:46.747Z,55.06
2023-03-17T18:40:19.887Z,56.15
2023-03-17T18:42:56.517Z,55.20
2023-03-17T18:45:30.345Z,54.54
2023-03-17T18:48:19.404Z,53.87
2023-03-17T18:50:55.296Z,53.60
2023-03-17T18:53:26.514Z,53.83
2023-03-17T18:56:14.820Z,52.81
2023-03-17T18:59:19.642Z,52.77
2023-03-17T19:04:45.590Z,52.66
2023-03-17T19:07:17.753Z,52.78
2023-03-17T19:09:58.569Z,52.59
2023-03-17T19:12:46.436Z,52.59
2023-03-17T19:15:29.956Z,52.59
2023-03-17T19:18:00.125Z,52.31
2023-03-17T19:20:33.396Z,52.46
2023-03-17T19:23:38.841Z,52.59
2023-03-17T19:26:09.724Z,52.93
2023-03-17T19:28:39.593Z,52.40
2023-03-17T19:31:13.098Z,52.65
2023-03-17T19:33:44.073Z,52.37
2023-03-17T19:36:18.410Z,52.45
2023-03-17T19:39:04.350Z,52.53
2023-03-17T19:41:43.791Z,52.31
2023-03-17T19:44:23.685Z,52.03
2023-03-17T19:47:04.537Z,52.14
2023-03-17T19:49:37.495Z,52.39
2023-03-17T19:52:10.991Z,52.27
2023-03-17T19:54:47.761Z,52.12
2023-03-17T19:57:20.237Z,51.65
2023-03-17T19:59:49.542Z,50.93
2023-03-17T20:02:22.845Z,48.95
2023-03-17T20:04:53.423Z,47.59
2023-03-17T20:07:29.111Z,45.96
2023-03-17T20:10:02.368Z,44.99
2023-03-17T20:12:33.801Z,44.56
2023-03-17T20:15:22.509Z,43.72
2023-03-17T20:17:58.876Z,43.44
2023-03-17T20:20:37.661Z,42.89
2023-03-17T20:23:14.707Z,42.27
2023-03-17T20:25:46.604Z,42.16
2023-03-17T20:28:23.591Z,41.84
2023-03-17T20:31:05.342Z,41.65
2023-03-17T20:33:56.068Z,41.47
2023-03-17T20:36:44.512Z,41.30
2023-03-17T20:39:19.456Z,40.42
2023-03-17T20:42:01.144Z,40.27
2023-03-17T20:45:10.942Z,40.03
2023-03-17T20:47:45.758Z,39.38
2023-03-17T20:50:15.934Z,39.21
2023-03-17T20:52:45.988Z,39.08
2023-03-17T21:03:27.629Z,38.33
2023-03-17T21:06:01.920Z,38.17
2023-03-17T21:08:35.220Z,37.88
2023-03-17T21:11:05.979Z,37.79
2023-03-17T21:13:38.460Z,37.22
2023-03-17T21:16:12.616Z,37.49
2023-03-17T21:19:12.477Z,37.41
2023-03-17T21:21:44.036Z,37.21
2023-03-17T21:24:33.097Z,37.30
2023-03-17T21:28:05.239Z,37.02
2023-03-17T21:30:36.551Z,36.79
2023-03-17T21:33:06.520Z,36.87
2023-03-17T21:35:37.500Z,36.67
2023-03-17T21:38:09.436Z,36.84
2023-03-17T21:41:42.733Z,36.63
2023-03-17T21:44:20.436Z,36.51
2023-03-17T21:46:50.465Z,36.43
2023-03-17T21:49:24.928Z,36.05
2023-03-17T21:51:56.673Z,35.88
2023-03-17T21:54:35.101Z,35.98
2023-03-17T21:57:06.267Z,35.79
2023-03-17T21:59:35.765Z,35.58
2023-03-17T22:02:06.366Z,35.67
2023-03-17T22:04:35.921Z,35.49
2023-03-17T22:07:05.465Z,35.57
2023-03-17T22:09:36.121Z,35.55
2023-03-17T22:12:08.887Z,35.35
2023-03-17T22:14:39.269Z,35.32
2023-03-17T22:17:09.812Z,35.36
2023-03-17T22:19:41.778Z,35.39
2023-03-17T22:22:14.901Z,35.26
2023-03-17T22:24:51.263Z,35.09
2023-03-17T22:27:21.047Z,34.88
2023-03-17T22:29:52.267Z,34.91
2023-03-17T22:32:21.851Z,34.90
2023-03-17T22:34:56.243Z,34.90
2023-03-17T22:37:27.528Z,34.81
2023-03-17T22:40:01.863Z,34.75
2023-03-17T22:42:32.858Z,34.70
2023-03-17T22:45:05.810Z,34.70
2023-03-17T22:47:36.530Z,34.56
2023-03-17T22:50:08.244Z,34.35
2023-03-17T22:52:38.568Z,34.46
2023-03-17T22:55:10.067Z,34.38
2023-03-17T22:57:40.345Z,34.12
2023-03-17T23:00:16.944Z,33.96
2023-03-17T23:02:47.161Z,33.82
2023-03-17T23:05:16.458Z,34.12
2023-03-17T23:07:53.048Z,34.07
2023-03-17T23:10:25.660Z,34.00
2023-03-17T23:12:55.131Z,34.01
2023-03-17T23:15:25.923Z,33.92
2023-03-17T23:17:56.257Z,33.94
2023-03-17T23:20:26.292Z,33.81
2023-03-17T23:22:55.646Z,33.96
2023-03-17T23:25:25.317Z,33.68
2023-03-17T23:27:56.064Z,33.61
2023-03-17T23:30:28.786Z,33.63
2023-03-17T23:33:01.435Z,33.62
2023-03-17T23:35:33.964Z,33.75
2023-03-17T23:38:07.271Z,33.67
2023-03-17T23:40:37.979Z,33.53
2023-03-17T23:43:08.139Z,33.73
2023-03-17T23:45:38.878Z,33.68
2023-03-17T23:48:09.978Z,33.57
2023-03-17T23:50:42.143Z,33.69
2023-03-17T23:53:15.602Z,33.83
2023-03-17T23:55:46.333Z,33.77
2023-03-17T23:58:15.899Z,33.70
